Meteo Giornale » Osservazioni meteo Italia » Milano-Malpensa

ore: 04:50 - Osservazioni Meteo Milano-Malpensa
Lat. 45° 37' N Lon. 8° 44' E Alt. 234 metri s.l.m.

sereno Europe/Rome

9 °C

Sereno

Temp. 24 Ore

4 °C

18 °C

Nord

16.7 Km/h

Dew point 7 °C

Umidità 87 %

Visibilità  10 Km

Il sole sorge alle ore 07:18

Il sole tramonta alle ore 19:12

Data e Ora Cielo e Fenomeni T °C DP °C Um. % Pres. hPa Vis. km Vento km/h
Oggi h: 04:50 sereno Sereno 9 7 87 1005 10 N 16.7
Oggi h: 04:20 sereno Sereno 7 6 93 1005 10 N/NO 9.3
Oggi h: 03:50 sereno Sereno 6 5 93 1005 10 N 7.4
Oggi h: 03:20 sereno Sereno 7 6 93 1005 10 N 7.4
Oggi h: 02:50 nebbia Nebbia a Strati 7 6 93 1005 10 N/NE 7.4
Oggi h: 02:20 sereno Sereno 7 6 93 1005 10 NE 7.4
Oggi h: 01:50 sereno Sereno 8 7 93 1005 10 N 9.3
Oggi h: 01:20 sereno Sereno 9 7 87 1006 10 N/NE 9.3
Oggi h: 00:50 sereno Sereno 9 7 87 1006 10 N 9.3
Oggi h: 00:20 sereno Sereno 9 8 93 1006 10 N 11.1
Ieri h: 23:50 sereno Sereno 9 8 93 1007 10 N 9.3
Ieri h: 23:20 sereno Sereno 10 8 87 1007 10 N 9.3
Ieri h: 22:50 sereno Sereno 11 8 81 1007 10 N 9.3
Ieri h: 22:20 molto_nuvoloso Molto Nuvoloso 12 9 81 1007 10 N/NE 11.1
Ieri h: 21:50 nuvoloso Nuvoloso 12 9 81 1007 10 N 5.5
Ieri h: 21:20 molto_nuvoloso Molto Nuvoloso 14 6 58 1007 10 O/SO 7.4
Ieri h: 20:50 coperto_pioggia Pioggia 13 8 71 1006 10 N 5.5
Ieri h: 20:20 molto_nuvoloso Molto Nuvoloso 14 7 62 1006 10 N/NE 9.3
Ieri h: 19:50 molto_nuvoloso Molto Nuvoloso 14 7 62 1006 10 E 14.8
Ieri h: 19:20 molto_nuvoloso Molto Nuvoloso 14 8 67 1005 10 E/SE 20.3
Ieri h: 18:50 nuvoloso Nuvoloso 16 5 47 1005 10 E/SE 9.3
Ieri h: 18:20 sereno Sereno 17 4 41 1004 10 E 7.4
Ieri h: 17:50 sereno Sereno 17 4 41 1004 10 E 11.1
Ieri h: 16:50 nuvoloso Nuvoloso 18 4 39 1004 10 N 5.5
Ieri h: 16:20 sereno Sereno 18 4 39 1004 10 N 7.4
Ieri h: 15:50 sereno Sereno 18 4 39 1004 10 E 9.3
Ieri h: 15:20 sereno Sereno 18 4 39 1005 10 N 3.7
Ieri h: 14:50 sereno Sereno 17 5 45 1005 10 S/SE 11.1
Ieri h: 14:20 sereno Sereno 17 5 45 1005 10 SE 14.8
Ieri h: 13:50 nuvoloso Nuvoloso 17 6 48 1005 10 SE 14.8
Ieri h: 13:20 nuvoloso Nuvoloso 17 5 45 1005 10 S/SE 14.8
Ieri h: 12:50 nuvoloso Nuvoloso 17 5 45 1005 10 E/SE 16.7
Ieri h: 12:20 sereno Sereno 17 5 45 1006 10 SE 20.3
Ieri h: 11:50 sereno Sereno 16 5 47 1005 10 E/SE 16.7
Ieri h: 11:20 sereno Sereno 15 5 51 1005 10 E 14.8
Ieri h: 10:50 sereno Sereno 15 5 51 1005 10 E 14.8
Ieri h: 10:20 sereno Sereno 14 4 50 1005 10 E 14.8
Ieri h: 09:50 sereno Sereno 14 4 50 1005 10 E 11.1
Ieri h: 09:20 sereno Sereno 12 3 54 1004 10 N 5.5
Ieri h: 08:50 sereno Sereno 10 4 66 1004 10 N 9.3
Ieri h: 08:20 sereno Sereno 5 3 86 1004 10 N 7.4
Ieri h: 07:50 sereno Sereno 4 1 80 1003 10 N 5.5
Ieri h: 07:20 sereno Sereno 5 2 80 1002 10 N 5.5
Ieri h: 06:50 sereno Sereno 6 1 70 1002 10 N/NE 9.3
Ieri h: 06:20 sereno Sereno 6 2 75 1002 10 N/NE 13
Ieri h: 05:50 sereno Sereno 6 2 75 1002 10 NE 11.1